Dauby — WDE9673 — position and weather

sailwx.info

Track history (hours):
 
Tides and Currents Weather Stations Pressure Air Temp Water Temp Dewpoint Dewpoint Depression Visibility Wind Speed Wind Dir Waves Ship Positions

Dauby

Owner: S D S LUMBER CO, BIRGEN, WA. More information available from US FCC via Universal Licensing System and Coast Guard Vessel Documentation Center.

Last reported at 2019-Feb-20 07:47 UTC. Time now 2019-Feb-20 08:19 UTC.
Position N 46°12' W 123°48'.

Length 15 m; draft 2.8 m.

MMSI: 338059832.

Date/timePositionNaut miles runAvg speedWind from/ knotsBaromVisibWave heightAir tempDewpointWater temp
2019-Feb-20 07:47N 46°12' W 123°48'2 8.6
2019-Feb-20 07:30N 46°12' W 123°51'3 5.8
2019-Feb-20 07:00N 46°12' W 123°56'0 0.3
2019-Feb-20 06:30N 46°11' W 123°55'0 0.0
2019-Feb-20 06:01N 46°11' W 123°55'2 3.6
2019-Feb-20 05:30N 46°11' W 123°53'5 9.2
2019-Feb-20 05:00N 46°13' W 123°47'710.6
2019-Feb-20 04:23N 46°15' W 123°38'411.0
2019-Feb-20 04:00N 46°16' W 123°32'9 9.3
2019-Feb-20 03:00N 46°09' W 123°23'510.7
2019-Feb-20 02:30N 46°09' W 123°15'510.8
2019-Feb-20 02:00N 46°11' W 123°08'510.5
2019-Feb-20 01:30N 46°08' W 123°01'3 5.1
2019-Feb-20 01:00N 46°07' W 122°58'2 2.2
2019-Feb-20 00:10N 46°06' W 122°56'0 0.0
2019-Feb-20 00:00N 46°06' W 122°56'0 0.0
2019-Feb-19 23:30N 46°06' W 122°56'1 2.2
2019-Feb-19 23:00N 46°06' W 122°55'0 0.0
2019-Feb-19 22:30N 46°06' W 122°55'0 0.0
2019-Feb-19 22:00N 46°06' W 122°55'0 0.0
2019-Feb-19 21:18N 46°06' W 122°55'0 0.0
2019-Feb-19 21:00N 46°06' W 122°55'0 0.0
2019-Feb-19 20:30N 46°06' W 122°55'0 0.0
2019-Feb-19 20:00N 46°06' W 122°55'0 0.0
2019-Feb-19 19:30N 46°06' W 122°55'0 0.0
2019-Feb-19 19:00N 46°06' W 122°55'0 0.0
2019-Feb-19 18:30N 46°06' W 122°55'0 0.0
2019-Feb-19 18:00N 46°06' W 122°55'0 0.0
2019-Feb-19 17:30N 46°06' W 122°55'0 0.0
2019-Feb-19 17:00N 46°06' W 122°55'0 0.0
2019-Feb-19 16:30N 46°06' W 122°55'0 0.3
2019-Feb-19 16:00N 46°06' W 122°55'1 1.8
2019-Feb-19 15:30N 46°06' W 122°56'0 0.1
2019-Feb-19 15:00N 46°06' W 122°56'0 0.0
2019-Feb-19 14:30N 46°06' W 122°56'0 0.0
2019-Feb-19 14:00N 46°06' W 122°56'0 0.0
2019-Feb-19 13:30N 46°06' W 122°56'0 0.0
2019-Feb-19 12:54N 46°06' W 122°56'0 0.0
2019-Feb-19 12:30N 46°06' W 122°56'0 0.0
2019-Feb-19 11:47N 46°06' W 122°56'0 0.1
2019-Feb-19 11:31N 46°06' W 122°56'1 2.1
2019-Feb-19 11:00N 46°06' W 122°55'1 0.9
2019-Feb-19 10:24N 46°06' W 122°55'0 0.0
2019-Feb-19 10:00N 46°06' W 122°55'0 0.0
2019-Feb-19 09:30N 46°06' W 122°55'0 0.0
2019-Feb-19 09:00N 46°06' W 122°55'0 0.0
2019-Feb-19 08:30N 46°06' W 122°55'0 0.0
2019-Feb-19 08:00N 46°06' W 122°55'0 0.0
2019-Feb-19 07:30N 46°06' W 122°55'0 0.0
2019-Feb-19 06:59N 46°06' W 122°55'0 0.0
2019-Feb-19 06:30N 46°06' W 122°55'2 2.9
2019-Feb-19 05:48N 46°04' W 122°53'510.1
2019-Feb-19 05:19N 45°60' W 122°51'310.1
2019-Feb-19 05:00N 45°57' W 122°49'510.1
2019-Feb-19 04:30N 45°52' W 122°47'5 9.5
2019-Feb-19 04:00N 45°47' W 122°47'5 9.2
2019-Feb-19 03:30N 45°43' W 122°46'4 8.2
2019-Feb-19 02:59N 45°39' W 122°44'4 8.0
2019-Feb-19 02:30N 45°37' W 122°40'4 8.1
2019-Feb-19 02:00N 45°36' W 122°34'4 7.4
2019-Feb-19 01:30N 45°35' W 122°29'0 0.0
2019-Feb-19 01:00N 45°35' W 122°29'0 0.0
2019-Feb-19 00:30N 45°35' W 122°29'1 2.2
2019-Feb-19 00:00N 45°34' W 122°28'3 7.0
2019-Feb-18 23:30N 45°34' W 122°23'4 7.9
2019-Feb-18 23:00N 45°33' W 122°18'4 7.9
2019-Feb-18 22:30N 45°34' W 122°12'4 7.2
2019-Feb-18 21:59N 45°35' W 122°07'4 7.8
2019-Feb-18 21:29N 45°37' W 122°02'4 0.3
2019-Feb-18 10:09N 45°38' W 121°57'1 0.2
2019-Feb-18 02:03N 45°39' W 121°56'1 0.2
2019-Feb-17 19:14N 45°38' W 121°57'1 1.5
2019-Feb-17 18:25N 45°39' W 121°56'0 0.0
2019-Feb-17 09:57N 45°39' W 121°56'2 0.7
2019-Feb-17 07:47N 45°38' W 121°58'1 0.5
2019-Feb-17 04:56N 45°39' W 121°56'0 0.0
2019-Feb-17 04:30N 45°39' W 121°56'0 0.0
2019-Feb-17 03:58N 45°39' W 121°56'0 0.0
2019-Feb-17 03:27N 45°39' W 121°56'0 0.0
2019-Feb-17 02:54N 45°39' W 121°56'0 0.0
2019-Feb-17 02:30N 45°39' W 121°56'0 0.0
2019-Feb-17 02:00N 45°39' W 121°56'0 0.0
2019-Feb-17 01:30N 45°39' W 121°56'0 0.0
2019-Feb-17 00:59N 45°39' W 121°56'0 0.0
2019-Feb-17 00:30N 45°39' W 121°56'0 0.0
2019-Feb-16 23:57N 45°39' W 121°56'3 0.1
2019-Feb-15 22:01N 45°41' W 121°53'  
2019-Feb-13 10:31N 45°37' W 122°00'0 2.4
2019-Feb-13 10:28N 45°37' W 122°01'2 4.3
2019-Feb-13 09:56N 45°38' W 121°58'2 0.2
2019-Feb-12 23:53N 45°37' W 122°01'2 5.8
2019-Feb-12 23:28N 45°36' W 122°04'4 7.1
2019-Feb-12 22:53N 45°35' W 122°10'2 6.4
2019-Feb-12 22:30N 45°34' W 122°13'3 6.7
2019-Feb-12 22:00N 45°33' W 122°17'3 6.4
2019-Feb-12 21:30N 45°34' W 122°21'3 5.9
2019-Feb-12 21:00N 45°34' W 122°26'3 6.4
2019-Feb-12 20:30N 45°35' W 122°30'3 6.8
2019-Feb-12 20:00N 45°36' W 122°35'4 7.0
2019-Feb-12 19:30N 45°37' W 122°39'3 5.9
2019-Feb-12 19:00N 45°38' W 122°43'3 6.9
2019-Feb-12 18:30N 45°41' W 122°46'4 7.4
2019-Feb-12 18:00N 45°45' W 122°46'4 7.7
2019-Feb-12 17:30N 45°48' W 122°47'7 7.8
2019-Feb-12 16:39N 45°55' W 122°49'1 8.3
2019-Feb-12 16:30N 45°56' W 122°48'4 8.2
2019-Feb-12 16:00N 45°60' W 122°51'4 8.0
2019-Feb-12 15:30N 46°03' W 122°53'3 6.2
2019-Feb-12 15:00N 46°06' W 122°56'0 0.7
2019-Feb-12 14:31N 46°06' W 122°55'1 1.1
2019-Feb-12 14:00N 46°06' W 122°56'0 0.0
2019-Feb-12 13:30N 46°06' W 122°56'0 0.0
2019-Feb-12 12:45N 46°06' W 122°56'0 0.0
2019-Feb-12 12:17N 46°06' W 122°56'0 0.0
2019-Feb-12 12:00N 46°06' W 122°56'0 0.1
2019-Feb-12 11:30N 46°06' W 122°56'3 5.8
2019-Feb-12 11:00N 46°04' W 122°53'4 8.7
2019-Feb-12 10:30N 45°60' W 122°51'4 8.6
2019-Feb-12 10:00N 45°56' W 122°48'5 8.6
2019-Feb-12 09:25N 45°51' W 122°47'3 8.1
2019-Feb-12 09:01N 45°48' W 122°47'4 8.2
2019-Feb-12 08:30N 45°43' W 122°46'4 8.2
2019-Feb-12 08:00N 45°39' W 122°46'4 8.0
2019-Feb-12 07:30N 45°37' W 122°41'4 7.9
2019-Feb-12 07:00N 45°36' W 122°35'4 8.1
2019-Feb-12 06:30N 45°35' W 122°30'4 7.8
2019-Feb-12 06:00N 45°34' W 122°24'4 7.8
2019-Feb-12 05:29N 45°33' W 122°19'4 8.3
2019-Feb-12 05:00N 45°33' W 122°13'4 8.2
2019-Feb-12 04:30N 45°35' W 122°08'4 8.1
2019-Feb-12 03:59N 45°37' W 122°02'  
Track history (hours):
 
Tides and Currents Weather Stations Pressure Air Temp Water Temp Dewpoint Dewpoint Depression Visibility Wind Speed Wind Dir Waves Ship Positions

Dauby

Owner: S D S LUMBER CO, BIRGEN, WA. More information available from US FCC via Universal Licensing System and Coast Guard Vessel Documentation Center.

Last reported at 2019-Feb-20 07:47 UTC. Time now 2019-Feb-20 08:19 UTC.
Position N 46°12' W 123°48'.

Length 15 m; draft 2.8 m.

MMSI: 338059832.

Date/timePositionNaut miles runAvg speedWind from/ knotsBaromVisibWave heightAir tempDewpointWater temp
2019-Feb-20 07:47N 46°12' W 123°48'2 8.6
2019-Feb-20 07:30N 46°12' W 123°51'3 5.8
2019-Feb-20 07:00N 46°12' W 123°56'0 0.3
2019-Feb-20 06:30N 46°11' W 123°55'0 0.0
2019-Feb-20 06:01N 46°11' W 123°55'2 3.6
2019-Feb-20 05:30N 46°11' W 123°53'5 9.2
2019-Feb-20 05:00N 46°13' W 123°47'710.6
2019-Feb-20 04:23N 46°15' W 123°38'411.0
2019-Feb-20 04:00N 46°16' W 123°32'9 9.3
2019-Feb-20 03:00N 46°09' W 123°23'510.7
2019-Feb-20 02:30N 46°09' W 123°15'510.8
2019-Feb-20 02:00N 46°11' W 123°08'510.5
2019-Feb-20 01:30N 46°08' W 123°01'3 5.1
2019-Feb-20 01:00N 46°07' W 122°58'2 2.2
2019-Feb-20 00:10N 46°06' W 122°56'0 0.0
2019-Feb-20 00:00N 46°06' W 122°56'0 0.0
2019-Feb-19 23:30N 46°06' W 122°56'1 2.2
2019-Feb-19 23:00N 46°06' W 122°55'0 0.0
2019-Feb-19 22:30N 46°06' W 122°55'0 0.0
2019-Feb-19 22:00N 46°06' W 122°55'0 0.0
2019-Feb-19 21:18N 46°06' W 122°55'0 0.0
2019-Feb-19 21:00N 46°06' W 122°55'0 0.0
2019-Feb-19 20:30N 46°06' W 122°55'0 0.0
2019-Feb-19 20:00N 46°06' W 122°55'0 0.0
2019-Feb-19 19:30N 46°06' W 122°55'0 0.0
2019-Feb-19 19:00N 46°06' W 122°55'0 0.0
2019-Feb-19 18:30N 46°06' W 122°55'0 0.0
2019-Feb-19 18:00N 46°06' W 122°55'0 0.0
2019-Feb-19 17:30N 46°06' W 122°55'0 0.0
2019-Feb-19 17:00N 46°06' W 122°55'0 0.0
2019-Feb-19 16:30N 46°06' W 122°55'0 0.3
2019-Feb-19 16:00N 46°06' W 122°55'1 1.8
2019-Feb-19 15:30N 46°06' W 122°56'0 0.1
2019-Feb-19 15:00N 46°06' W 122°56'0 0.0
2019-Feb-19 14:30N 46°06' W 122°56'0 0.0
2019-Feb-19 14:00N 46°06' W 122°56'0 0.0
2019-Feb-19 13:30N 46°06' W 122°56'0 0.0
2019-Feb-19 12:54N 46°06' W 122°56'0 0.0
2019-Feb-19 12:30N 46°06' W 122°56'0 0.0
2019-Feb-19 11:47N 46°06' W 122°56'0 0.1
2019-Feb-19 11:31N 46°06' W 122°56'1 2.1
2019-Feb-19 11:00N 46°06' W 122°55'1 0.9
2019-Feb-19 10:24N 46°06' W 122°55'0 0.0
2019-Feb-19 10:00N 46°06' W 122°55'0 0.0
2019-Feb-19 09:30N 46°06' W 122°55'0 0.0
2019-Feb-19 09:00N 46°06' W 122°55'0 0.0
2019-Feb-19 08:30N 46°06' W 122°55'0 0.0
2019-Feb-19 08:00N 46°06' W 122°55'0 0.0
2019-Feb-19 07:30N 46°06' W 122°55'0 0.0
2019-Feb-19 06:59N 46°06' W 122°55'0 0.0
2019-Feb-19 06:30N 46°06' W 122°55'2 2.9
2019-Feb-19 05:48N 46°04' W 122°53'510.1
2019-Feb-19 05:19N 45°60' W 122°51'310.1
2019-Feb-19 05:00N 45°57' W 122°49'510.1
2019-Feb-19 04:30N 45°52' W 122°47'5 9.5
2019-Feb-19 04:00N 45°47' W 122°47'5 9.2
2019-Feb-19 03:30N 45°43' W 122°46'4 8.2
2019-Feb-19 02:59N 45°39' W 122°44'4 8.0
2019-Feb-19 02:30N 45°37' W 122°40'4 8.1
2019-Feb-19 02:00N 45°36' W 122°34'4 7.4
2019-Feb-19 01:30N 45°35' W 122°29'0 0.0
2019-Feb-19 01:00N 45°35' W 122°29'0 0.0
2019-Feb-19 00:30N 45°35' W 122°29'1 2.2
2019-Feb-19 00:00N 45°34' W 122°28'3 7.0
2019-Feb-18 23:30N 45°34' W 122°23'4 7.9
2019-Feb-18 23:00N 45°33' W 122°18'4 7.9
2019-Feb-18 22:30N 45°34' W 122°12'4 7.2
2019-Feb-18 21:59N 45°35' W 122°07'4 7.8
2019-Feb-18 21:29N 45°37' W 122°02'4 0.3
2019-Feb-18 10:09N 45°38' W 121°57'1 0.2
2019-Feb-18 02:03N 45°39' W 121°56'1 0.2
2019-Feb-17 19:14N 45°38' W 121°57'1 1.5
2019-Feb-17 18:25N 45°39' W 121°56'0 0.0
2019-Feb-17 09:57N 45°39' W 121°56'2 0.7
2019-Feb-17 07:47N 45°38' W 121°58'1 0.5
2019-Feb-17 04:56N 45°39' W 121°56'0 0.0
2019-Feb-17 04:30N 45°39' W 121°56'0 0.0
2019-Feb-17 03:58N 45°39' W 121°56'0 0.0
2019-Feb-17 03:27N 45°39' W 121°56'0 0.0
2019-Feb-17 02:54N 45°39' W 121°56'0 0.0
2019-Feb-17 02:30N 45°39' W 121°56'0 0.0
2019-Feb-17 02:00N 45°39' W 121°56'0 0.0
2019-Feb-17 01:30N 45°39' W 121°56'0 0.0
2019-Feb-17 00:59N 45°39' W 121°56'0 0.0
2019-Feb-17 00:30N 45°39' W 121°56'0 0.0
2019-Feb-16 23:57N 45°39' W 121°56'3 0.1
2019-Feb-15 22:01N 45°41' W 121°53'  
2019-Feb-13 10:31N 45°37' W 122°00'0 2.4
2019-Feb-13 10:28N 45°37' W 122°01'2 4.3
2019-Feb-13 09:56N 45°38' W 121°58'2 0.2
2019-Feb-12 23:53N 45°37' W 122°01'2 5.8
2019-Feb-12 23:28N 45°36' W 122°04'4 7.1
2019-Feb-12 22:53N 45°35' W 122°10'2 6.4
2019-Feb-12 22:30N 45°34' W 122°13'3 6.7
2019-Feb-12 22:00N 45°33' W 122°17'3 6.4
2019-Feb-12 21:30N 45°34' W 122°21'3 5.9
2019-Feb-12 21:00N 45°34' W 122°26'3 6.4
2019-Feb-12 20:30N 45°35' W 122°30'3 6.8
2019-Feb-12 20:00N 45°36' W 122°35'4 7.0
2019-Feb-12 19:30N 45°37' W 122°39'3 5.9
2019-Feb-12 19:00N 45°38' W 122°43'3 6.9
2019-Feb-12 18:30N 45°41' W 122°46'4 7.4
2019-Feb-12 18:00N 45°45' W 122°46'4 7.7
2019-Feb-12 17:30N 45°48' W 122°47'7 7.8
2019-Feb-12 16:39N 45°55' W 122°49'1 8.3
2019-Feb-12 16:30N 45°56' W 122°48'4 8.2
2019-Feb-12 16:00N 45°60' W 122°51'4 8.0
2019-Feb-12 15:30N 46°03' W 122°53'3 6.2
2019-Feb-12 15:00N 46°06' W 122°56'0 0.7
2019-Feb-12 14:31N 46°06' W 122°55'1 1.1
2019-Feb-12 14:00N 46°06' W 122°56'0 0.0
2019-Feb-12 13:30N 46°06' W 122°56'0 0.0
2019-Feb-12 12:45N 46°06' W 122°56'0 0.0
2019-Feb-12 12:17N 46°06' W 122°56'0 0.0
2019-Feb-12 12:00N 46°06' W 122°56'0 0.1
2019-Feb-12 11:30N 46°06' W 122°56'3 5.8
2019-Feb-12 11:00N 46°04' W 122°53'4 8.7
2019-Feb-12 10:30N 45°60' W 122°51'4 8.6
2019-Feb-12 10:00N 45°56' W 122°48'5 8.6
2019-Feb-12 09:25N 45°51' W 122°47'3 8.1
2019-Feb-12 09:01N 45°48' W 122°47'4 8.2
2019-Feb-12 08:30N 45°43' W 122°46'4 8.2
2019-Feb-12 08:00N 45°39' W 122°46'4 8.0
2019-Feb-12 07:30N 45°37' W 122°41'4 7.9
2019-Feb-12 07:00N 45°36' W 122°35'4 8.1
2019-Feb-12 06:30N 45°35' W 122°30'4 7.8
2019-Feb-12 06:00N 45°34' W 122°24'4 7.8
2019-Feb-12 05:29N 45°33' W 122°19'4 8.3
2019-Feb-12 05:00N 45°33' W 122°13'4 8.2
2019-Feb-12 04:30N 45°35' W 122°08'4 8.1
2019-Feb-12 03:59N 45°37' W 122°02'  

Dump ship's entire track history